Time;durP1;ratioP1;P1;durP2;ratioP2;P2;SDS_P1;SDS_P2;PMS_P1;PMS_P2;Temp;Humidity;BMP_temperature;BMP_pressure;BME280_temperature;BME280_humidity;BME280_pressure;Samples;Min_cycle;Max_cycle;Signal;HPM_P1;HPM_P2
2023/02/28 00:00:13;;;;;;;0.70;0.70;;;;;;;-2.74;60.83;97474.06;29373;209;63004;-60
2023/02/28 00:00:44;;;;;;;0.70;0.70;;;;;;;-2.78;61.01;97475.50;29373;289;63009;-58
2023/02/28 00:01:16;;;;;;;0.70;0.70;;;;;;;-2.82;60.64;97484.84;29371;203;64009;-59
2023/02/28 00:01:47;;;;;;;2.08;1.98;;;;;;;-2.87;60.66;97480.13;29373;334;63009;-61
2023/02/28 00:02:18;;;;;;;0.70;0.70;;;;;;;-2.88;61.22;97481.13;29371;281;64009;-61
2023/02/28 00:02:50;;;;;;;0.60;0.60;;;;;;;-2.89;61.44;97487.47;29373;312;63009;-59
2023/02/28 00:03:21;;;;;;;0.80;0.80;;;;;;;-2.89;61.78;97487.47;29373;219;63009;-59
2023/02/28 00:03:53;;;;;;;0.70;0.70;;;;;;;-2.89;62.48;97492.78;29373;244;63009;-60
2023/02/28 00:04:25;;;;;;;0.70;0.70;;;;;;;-2.88;62.63;97494.41;29373;242;63005;-59
2023/02/28 00:05:00;;;;;;;0.70;0.70;;;;;;;-2.87;62.26;97495.22;29373;251;63009;-59
2023/02/28 00:05:33;;;;;;;0.70;0.70;;;;;;;-2.88;62.47;97489.09;29373;202;63004;-59
2023/02/28 00:06:05;;;;;;;0.70;0.70;;;;;;;-2.87;61.92;97495.22;29373;288;63009;-59
2023/02/28 00:06:37;;;;;;;0.70;0.70;;;;;;;-2.87;62.01;97484.63;29371;211;64009;-59
2023/02/28 00:07:09;;;;;;;0.70;0.70;;;;;;;-2.87;61.96;97490.75;29373;221;63009;-59
2023/02/28 00:07:42;;;;;;;0.70;0.70;;;;;;;-2.87;61.63;97485.44;29373;236;63004;-59
2023/02/28 00:08:13;;;;;;;0.70;0.70;;;;;;;-2.86;61.50;97487.06;29373;208;63026;-60
2023/02/28 00:08:44;;;;;;;0.70;0.70;;;;;;;-2.86;61.57;97483.59;29373;319;63005;-59
2023/02/28 00:09:17;;;;;;;0.70;0.70;;;;;;;-2.85;61.52;97478.09;29371;197;64014;-61
2023/02/28 00:09:48;;;;;;;0.70;0.70;;;;;;;-2.85;61.63;97478.09;29373;224;63005;-59
2023/02/28 00:10:23;;;;;;;0.70;0.70;;;;;;;-2.87;61.48;97490.75;29373;235;63009;-59
2023/02/28 00:10:54;;;;;;;0.70;0.70;;;;;;;-2.88;61.88;97478.47;29373;218;63005;-61
2023/02/28 00:11:26;;;;;;;0.70;0.70;;;;;;;-2.88;61.57;97483.78;29373;330;63005;-59
2023/02/28 00:11:57;;;;;;;0.65;0.65;;;;;;;-2.86;61.83;97481.75;29373;197;63005;-59
2023/02/28 00:12:29;;;;;;;0.85;0.85;;;;;;;-2.84;61.56;97484.22;29373;301;63023;-61
2023/02/28 00:13:06;;;;;;;0.80;0.80;;;;;;;-2.85;61.54;97471.97;29373;324;63004;-58
2023/02/28 00:13:40;;;;;;;0.77;0.77;;;;;;;-2.87;61.32;97485.44;29373;199;63009;-59
2023/02/28 00:14:12;;;;;;;0.70;0.70;;;;;;;-2.90;61.41;97480.50;29373;232;63004;-60
2023/02/28 00:14:43;;;;;;;0.70;0.70;;;;;;;-2.90;61.77;97483.16;29371;204;64013;-61
2023/02/28 00:15:19;;;;;;;0.70;0.70;;;;;;;-2.90;61.63;97485.81;29373;262;63004;-61
2023/02/28 00:16:00;;;;;;;0.70;0.70;;;;;;;-2.92;61.34;97474.56;29373;365;63009;-60
2023/02/28 00:16:31;;;;;;;0.70;0.70;;;;;;;-2.90;61.44;97475.19;29395;316;63005;-59
2023/02/28 00:17:05;;;;;;;0.70;0.70;;;;;;;-2.88;61.07;97478.47;29395;362;63009;-59
2023/02/28 00:17:37;;;;;;;0.70;0.70;;;;;;;-2.88;61.06;97472.34;29373;293;63008;-60
2023/02/28 00:18:11;;;;;;;0.70;0.70;;;;;;;-2.89;61.71;97476.84;29373;241;63013;-59
2023/02/28 00:18:43;;;;;;;3.58;3.42;;;;;;;-2.89;61.96;97482.16;29373;228;63005;-60
2023/02/28 00:19:14;;;;;;;0.70;0.70;;;;;;;-2.90;62.20;97485.81;29373;347;63009;-60
2023/02/28 00:19:45;;;;;;;0.70;0.70;;;;;;;-2.93;62.62;97486.19;29371;202;64009;-60
2023/02/28 00:20:17;;;;;;;0.68;0.68;;;;;;;-2.94;62.81;97484.56;29373;207;63009;-60
2023/02/28 00:20:51;;;;;;;0.70;0.70;;;;;;;-2.95;62.85;97488.22;29373;228;63004;-59
2023/02/28 00:21:22;;;;;;;0.70;0.70;;;;;;;-2.96;63.22;97491.91;29373;317;63009;-60
2023/02/28 00:21:53;;;;;;;0.70;0.70;;;;;;;-2.96;63.23;97485.75;29373;215;63010;-58
2023/02/28 00:22:25;;;;;;;0.62;0.62;;;;;;;-2.96;62.72;97491.91;29373;305;63009;-58
2023/02/28 00:22:56;;;;;;;0.70;0.70;;;;;;;-2.97;62.48;97484.94;29373;221;63004;-61
2023/02/28 00:23:28;;;;;;;0.70;0.70;;;;;;;-2.97;62.10;97482.28;29373;209;63005;-58
2023/02/28 00:24:00;;;;;;;0.70;0.70;;;;;;;-2.95;62.05;97487.41;29373;209;63005;-59
2023/02/28 00:24:32;;;;;;;0.60;0.60;;;;;;;-2.98;61.93;97483.28;29373;293;63009;-60
2023/02/28 00:25:07;;;;;;;0.70;0.70;;;;;;;-2.98;62.30;97483.28;29371;304;64009;-60
2023/02/28 00:25:39;;;;;;;0.70;0.70;;;;;;;-2.98;62.31;97478.00;29373;212;63009;-62
2023/02/28 00:26:10;;;;;;;0.70;0.70;;;;;;;-2.97;62.66;97484.94;29373;263;63005;-59
2023/02/28 00:26:41;;;;;;;0.70;0.70;;;;;;;-2.97;63.25;97487.59;29373;203;63009;-58
2023/02/28 00:27:13;;;;;;;0.70;0.70;;;;;;;-2.97;62.93;97487.59;29373;263;63005;-59
2023/02/28 00:27:48;;;;;;;0.70;0.70;;;;;;;-2.96;62.86;97494.56;29373;228;63014;-61
2023/02/28 00:28:22;;;;;;;0.65;0.65;;;;;;;-2.96;62.71;97477.78;29373;226;63004;-61
2023/02/28 00:28:54;;;;;;;0.70;0.70;;;;;;;-2.96;62.90;97491.06;29373;235;63004;-58
2023/02/28 00:29:26;;;;;;;0.70;0.70;;;;;;;-2.98;63.44;97488.59;29373;275;63008;-58
2023/02/28 00:29:57;;;;;;;0.70;0.70;;;;;;;-2.98;63.46;97493.09;29373;215;63009;-60
2023/02/28 00:30:31;;;;;;;0.70;0.70;;;;;;;-3.01;63.37;97488.16;29371;302;64008;-61
2023/02/28 00:31:04;;;;;;;1.10;1.08;;;;;;;-3.04;63.33;97481.41;29373;204;63005;-62
2023/02/28 00:31:35;;;;;;;0.70;0.70;;;;;;;-3.03;62.88;97485.72;29373;374;63005;-60
2023/02/28 00:32:07;;;;;;;0.70;0.70;;;;;;;-3.03;62.57;97485.72;29373;272;63009;-58
2023/02/28 00:32:39;;;;;;;0.70;0.70;;;;;;;-3.02;62.47;97487.34;29373;220;63000;-59
2023/02/28 00:33:10;;;;;;;0.70;0.70;;;;;;;-3.01;62.74;97481.03;29373;295;63009;-60
2023/02/28 00:33:41;;;;;;;0.70;0.70;;;;;;;-3.03;62.82;97485.72;29371;231;64009;-61
2023/02/28 00:34:13;;;;;;;0.70;0.70;;;;;;;-3.07;62.79;97490.56;29373;220;63009;-61
2023/02/28 00:34:44;;;;;;;0.70;0.70;;;;;;;-3.10;62.90;97487.47;29373;351;63005;-60
2023/02/28 00:35:17;;;;;;;0.70;0.70;;;;;;;-3.12;62.97;97489.53;29373;221;63009;-60
2023/02/28 00:35:48;;;;;;;0.73;0.73;;;;;;;-3.12;63.07;97482.38;29373;241;63004;-59
2023/02/28 00:36:19;;;;;;;0.70;0.70;;;;;;;-3.12;63.00;97489.53;29373;210;63009;-59
2023/02/28 00:36:51;;;;;;;0.70;0.70;;;;;;;-3.09;62.70;97486.47;29373;196;63009;-59
2023/02/28 00:37:22;;;;;;;0.70;0.70;;;;;;;-3.10;63.42;97485.66;29373;295;63009;-58
2023/02/28 00:37:54;;;;;;;0.77;0.77;;;;;;;-3.11;63.61;97488.50;29373;259;63004;-58
2023/02/28 00:38:25;;;;;;;0.70;0.70;;;;;;;-3.10;63.27;97490.12;29373;220;63009;-61
2023/02/28 00:38:56;;;;;;;0.70;0.70;;;;;;;-3.08;63.47;97488.13;29371;214;63999;-60
2023/02/28 00:39:28;;;;;;;0.70;0.70;;;;;;;-3.08;63.51;97494.25;29371;337;64014;-58
2023/02/28 00:39:59;;;;;;;0.70;0.70;;;;;;;-3.10;63.42;97488.31;29373;211;63005;-58
2023/02/28 00:40:32;;;;;;;1.12;1.12;;;;;;;-3.10;63.56;97490.12;29373;210;63009;-59
2023/02/28 00:41:04;;;;;;;0.70;0.70;;;;;;;-3.11;63.25;97489.31;29373;227;63005;-60
2023/02/28 00:41:35;;;;;;;0.60;0.60;;;;;;;-3.11;63.25;97478.69;29373;231;63009;-58
2023/02/28 00:42:08;;;;;;;0.70;0.70;;;;;;;-3.10;63.53;97490.12;29373;222;63005;-58
2023/02/28 00:42:40;;;;;;;0.70;0.70;;;;;;;-3.11;63.72;97486.66;29373;199;63009;-61
2023/02/28 00:43:11;;;;;;;0.70;0.70;;;;;;;-3.10;63.66;97490.97;29373;212;63004;-62
2023/02/28 00:43:43;;;;;;;0.70;0.70;;;;;;;-3.10;63.24;97492.78;29373;290;63009;-59
2023/02/28 00:44:14;;;;;;;0.70;0.70;;;;;;;-3.12;63.33;97485.03;29373;233;63000;-59
2023/02/28 00:44:45;;;;;;;0.70;0.70;;;;;;;-3.10;63.22;97484.81;29371;199;64005;-59
2023/02/28 00:45:17;;;;;;;0.70;0.70;;;;;;;-3.07;63.24;97489.75;29371;229;64008;-58
2023/02/28 00:45:48;;;;;;;0.68;0.68;;;;;;;-3.06;63.13;97486.09;29372;226;63008;-61
2023/02/28 00:46:20;;;;;;;0.70;0.70;;;;;;;-3.07;63.48;97490.56;29373;319;63011;-60
2023/02/28 00:46:53;;;;;;;0.70;0.70;;;;;;;-3.08;64.49;97493.41;29373;224;63009;-58
2023/02/28 00:47:25;;;;;;;0.70;0.70;;;;;;;-3.12;64.48;97489.53;29373;212;63005;-60
2023/02/28 00:47:57;;;;;;;1.00;1.00;;;;;;;-3.14;63.99;97488.91;29373;314;63009;-59
2023/02/28 00:48:29;;;;;;;0.70;0.70;;;;;;;-3.15;63.81;97495.22;29373;197;63005;-58
2023/02/28 00:49:00;;;;;;;0.70;0.70;;;;;;;-3.15;63.94;97493.41;29373;295;63009;-62
2023/02/28 00:49:35;;;;;;;0.70;0.70;;;;;;;-3.10;63.49;97485.66;29373;328;63004;-61
2023/02/28 00:50:10;;;;;;;0.70;0.70;;;;;;;-3.08;63.11;97483.63;29373;197;63009;-59
2023/02/28 00:50:42;;;;;;;0.70;0.70;;;;;;;-3.10;63.37;97495.44;29371;233;64009;-59
2023/02/28 00:51:13;;;;;;;0.70;0.70;;;;;;;-3.11;63.60;97483.19;29373;198;63004;-61
2023/02/28 00:51:48;;;;;;;0.70;0.70;;;;;;;-3.12;63.40;97481.56;29373;311;63004;-59
2023/02/28 00:52:22;;;;;;;0.60;0.60;;;;;;;-3.15;63.89;97482.78;29373;284;63008;-58
2023/02/28 00:52:53;;;;;;;0.70;0.70;;;;;;;-3.17;64.10;97489.28;29373;279;63004;-58
2023/02/28 00:53:25;;;;;;;0.70;0.70;;;;;;;-3.19;64.46;97494.78;29371;202;64013;-60
2023/02/28 00:53:56;;;;;;;0.70;0.70;;;;;;;-3.19;64.72;97492.13;29373;310;63005;-60
2023/02/28 00:54:28;;;;;;;0.70;0.70;;;;;;;-3.20;64.71;97494.97;29373;218;63009;-62
2023/02/28 00:54:59;;;;;;;0.70;0.70;;;;;;;-3.18;64.46;97488.47;29373;285;63005;-58
2023/02/28 00:55:31;;;;;;;0.70;0.70;;;;;;;-3.19;64.09;97489.47;29373;211;63009;-58
2023/02/28 00:56:03;;;;;;;0.70;0.70;;;;;;;-3.22;63.55;97491.69;29373;296;63005;-58
2023/02/28 00:56:34;;;;;;;0.70;0.70;;;;;;;-3.23;63.64;97490.03;29373;260;63009;-58
2023/02/28 00:57:06;;;;;;;0.70;0.70;;;;;;;-3.24;63.72;97488.41;29373;210;63004;-59
2023/02/28 00:57:37;;;;;;;0.80;0.80;;;;;;;-3.22;63.61;97486.37;29373;260;63009;-58
2023/02/28 00:58:08;;;;;;;0.80;0.80;;;;;;;-3.21;63.35;97482.72;29373;218;63004;-58
2023/02/28 00:58:40;;;;;;;0.70;0.70;;;;;;;-3.20;63.67;97484.34;29371;349;64013;-59
2023/02/28 00:59:12;;;;;;;0.80;0.80;;;;;;;-3.19;63.62;97491.31;29373;288;63010;-60
2023/02/28 00:59:43;;;;;;;0.70;0.70;;;;;;;-3.21;63.56;97482.72;29373;218;63016;-59
2023/02/28 01:00:17;;;;;;;0.70;0.70;;;;;;;-3.21;63.29;97477.41;29373;262;63005;-59
2023/02/28 01:00:48;;;;;;;0.60;0.60;;;;;;;-3.19;63.42;97486.00;29373;211;63009;-58
2023/02/28 01:01:20;;;;;;;5.00;4.82;;;;;;;-3.18;63.33;97482.34;29373;218;63005;-60
2023/02/28 01:01:51;;;;;;;0.70;0.70;;;;;;;-3.17;63.81;97489.28;29373;216;63009;-58
2023/02/28 01:02:23;;;;;;;0.70;0.70;;;;;;;-3.17;63.56;97489.28;29373;273;63005;-59
2023/02/28 01:02:54;;;;;;;1.00;1.00;;;;;;;-3.18;63.56;97483.16;29373;202;63009;-59
2023/02/28 01:03:26;;;;;;;0.70;0.70;;;;;;;-3.17;63.73;97483.97;29373;317;63005;-58
2023/02/28 01:03:57;;;;;;;0.70;0.70;;;;;;;-3.18;64.27;97485.81;29371;222;64013;-60
2023/02/28 01:04:28;;;;;;;0.70;0.70;;;;;;;-3.17;64.04;97494.59;29373;208;63004;-60
2023/02/28 01:04:59;;;;;;;0.70;0.70;;;;;;;-3.17;64.26;97483.97;29373;207;63009;-59
2023/02/28 01:05:31;;;;;;;0.70;0.70;;;;;;;-3.16;64.10;97485.63;29373;204;63004;-58
2023/02/28 01:06:03;;;;;;;0.70;0.70;;;;;;;-3.16;63.69;97480.31;29373;227;63009;-58
2023/02/28 01:06:35;;;;;;;0.70;0.70;;;;;;;-3.16;63.60;97480.31;29371;272;64009;-58
2023/02/28 01:07:07;;;;;;;0.70;0.70;;;;;;;-3.16;63.38;97481.13;29373;220;63008;-59
2023/02/28 01:07:38;;;;;;;0.70;0.70;;;;;;;-3.15;63.12;97476.66;29373;341;63004;-59
2023/02/28 01:08:10;;;;;;;0.68;0.68;;;;;;;-3.14;63.28;97478.28;29373;299;63009;-60
2023/02/28 01:08:41;;;;;;;0.70;0.70;;;;;;;-3.14;63.42;97486.25;29373;207;63005;-60
2023/02/28 01:09:12;;;;;;;0.60;0.60;;;;;;;-3.14;63.46;97478.28;29373;256;63009;-59
2023/02/28 01:09:44;;;;;;;0.70;0.70;;;;;;;-3.14;63.62;97483.59;29373;252;63005;-60
2023/02/28 01:10:16;;;;;;;0.70;0.70;;;;;;;-3.14;63.84;97483.59;29373;197;63009;-59
2023/02/28 01:10:50;;;;;;;0.70;0.70;;;;;;;-3.15;64.18;97493.41;29371;281;64009;-59
2023/02/28 01:11:21;;;;;;;0.70;0.70;;;;;;;-3.16;64.31;97480.31;29373;352;63013;-60
2023/02/28 01:11:52;;;;;;;0.68;0.68;;;;;;;-3.17;65.09;97486.63;29373;231;63005;-59
2023/02/28 01:12:23;;;;;;;0.70;0.70;;;;;;;-3.17;64.91;97481.31;29373;264;63009;-58
2023/02/28 01:12:55;;;;;;;0.70;0.70;;;;;;;-3.17;64.87;97483.97;29371;220;64009;-60
2023/02/28 01:13:26;;;;;;;0.60;0.60;;;;;;;-3.19;65.21;97486.00;29373;219;63009;-58
2023/02/28 01:13:57;;;;;;;0.70;0.70;;;;;;;-3.18;64.98;97479.69;29373;307;63000;-60
2023/02/28 01:14:29;;;;;;;0.70;0.70;;;;;;;-3.17;65.55;97486.63;29371;265;64013;-60
2023/02/28 01:15:00;;;;;;;0.70;0.70;;;;;;;-3.19;65.74;97491.31;29373;243;63004;-60
2023/02/28 01:15:32;;;;;;;0.70;0.70;;;;;;;-3.19;65.81;97481.50;29373;204;63009;-60
2023/02/28 01:16:05;;;;;;;0.70;0.70;;;;;;;-3.20;65.95;97487.00;29373;299;63001;-58
2023/02/28 01:16:36;;;;;;;0.70;0.70;;;;;;;-3.22;66.19;97495.16;29373;199;63009;-58
2023/02/28 01:17:08;;;;;;;0.70;0.70;;;;;;;-3.25;65.77;97478.78;29373;280;63005;-59
2023/02/28 01:17:39;;;;;;;0.70;0.70;;;;;;;-3.23;65.68;97490.03;29373;219;63009;-60
2023/02/28 01:18:10;;;;;;;0.70;0.70;;;;;;;-3.23;65.20;97482.09;29373;263;63010;-58
2023/02/28 01:18:42;;;;;;;0.60;0.60;;;;;;;-3.23;65.28;97487.41;29373;219;63009;-61
2023/02/28 01:19:13;;;;;;;0.70;0.70;;;;;;;-3.24;64.92;97488.41;29371;220;64009;-59
2023/02/28 01:19:45;;;;;;;0.60;0.60;;;;;;;-3.28;64.78;97481.84;29373;246;63009;-60
2023/02/28 01:20:18;;;;;;;0.70;0.70;;;;;;;-3.27;64.49;97484.28;29373;216;63004;-58
2023/02/28 01:20:52;;;;;;;0.70;0.70;;;;;;;-3.24;64.45;97480.44;29373;250;63016;-60
2023/02/28 01:21:24;;;;;;;0.70;0.70;;;;;;;-3.30;64.58;97475.91;29373;207;63004;-59
2023/02/28 01:21:55;;;;;;;0.70;0.70;;;;;;;-3.26;64.30;97474.50;29373;214;63009;-58
2023/02/28 01:22:28;;;;;;;0.70;0.70;;;;;;;-3.25;64.41;97481.44;29373;232;63004;-59
2023/02/28 01:23:02;;;;;;;1.20;1.20;;;;;;;-3.24;64.35;97477.78;29373;220;63005;-60
2023/02/28 01:23:35;;;;;;;0.70;0.70;;;;;;;-3.23;64.72;97479.44;29373;241;63005;-59
2023/02/28 01:24:07;;;;;;;0.65;0.65;;;;;;;-3.25;64.82;97476.97;29371;271;64014;-58
2023/02/28 01:24:38;;;;;;;0.70;0.70;;;;;;;-3.26;64.81;97480.63;29373;309;63005;-58
2023/02/28 01:25:10;;;;;;;0.70;0.70;;;;;;;-3.24;65.68;97483.09;29373;198;63009;-60
2023/02/28 01:25:41;;;;;;;0.70;0.70;;;;;;;-3.25;66.44;97489.41;29373;213;63005;-58
2023/02/28 01:26:21;;;;;;;0.70;0.70;;;;;;;-3.26;66.25;97490.44;29373;225;63018;-58
2023/02/28 01:26:52;;;;;;;2.33;2.22;;;;;;;-3.26;65.43;97485.13;29373;221;63005;-58
2023/02/28 01:27:24;;;;;;;0.65;0.65;;;;;;;-3.26;65.22;97485.13;29373;214;63009;-59
2023/02/28 01:27:56;;;;;;;0.70;0.70;;;;;;;-3.28;65.64;97481.84;29373;250;63010;-60
2023/02/28 01:28:29;;;;;;;0.70;0.70;;;;;;;-3.27;65.23;97483.47;29371;229;64013;-58
2023/02/28 01:29:00;;;;;;;0.70;0.70;;;;;;;-3.27;66.07;97483.47;29373;272;63004;-58
2023/02/28 01:29:32;;;;;;;0.70;0.70;;;;;;;-3.28;66.20;97492.44;29373;206;63009;-58
2023/02/28 01:30:04;;;;;;;0.70;0.70;;;;;;;-3.29;66.54;97482.84;29373;209;63004;-58
2023/02/28 01:30:35;;;;;;;1.55;1.55;;;;;;;-3.30;66.08;97484.69;29373;216;63009;-60
2023/02/28 01:31:08;;;;;;;2.47;2.35;;;;;;;-3.30;66.35;97494.47;29373;222;63005;-58
2023/02/28 01:31:39;;;;;;;0.70;0.70;;;;;;;-3.33;66.12;97479.75;29371;212;64014;-60
2023/02/28 01:32:11;;;;;;;0.70;0.70;;;;;;;-3.35;66.68;97486.25;29373;219;63005;-61
2023/02/28 01:32:42;;;;;;;1.00;1.00;;;;;;;-3.39;66.50;97481.31;29373;221;63006;-59
2023/02/28 01:33:14;;;;;;;0.70;0.70;;;;;;;-3.38;66.72;97488.28;29373;317;63005;-58
2023/02/28 01:33:45;;;;;;;0.70;0.70;;;;;;;-3.38;66.74;97485.63;29373;204;63009;-58
2023/02/28 01:34:18;;;;;;;0.70;0.70;;;;;;;-3.38;66.84;97482.97;29373;231;63008;-58
2023/02/28 01:34:52;;;;;;;0.70;0.70;;;;;;;-3.38;66.81;97488.28;29373;231;63009;-59
2023/02/28 01:35:25;;;;;;;1.15;1.15;;;;;;;-3.38;66.90;97485.63;29373;356;63004;-58
2023/02/28 01:36:00;;;;;;;0.70;0.70;;;;;;;-3.37;67.14;97484.63;29373;202;63009;-58
2023/02/28 01:36:32;;;;;;;0.70;0.70;;;;;;;-3.35;67.14;97487.06;29373;212;63009;-58
2023/02/28 01:37:06;;;;;;;0.70;0.70;;;;;;;-3.35;67.60;97492.38;29371;202;64013;-58
2023/02/28 01:37:38;;;;;;;0.70;0.70;;;;;;;-3.38;67.64;97488.28;29373;223;63000;-59
2023/02/28 01:38:09;;;;;;;0.70;0.70;;;;;;;-3.39;67.32;97489.28;29373;235;63009;-58
2023/02/28 01:38:41;;;;;;;0.70;0.70;;;;;;;-3.38;67.34;97488.28;29373;216;63005;-58
2023/02/28 01:39:12;;;;;;;0.70;0.70;;;;;;;-3.38;66.93;97488.28;29373;211;63009;-60
2023/02/28 01:39:43;;;;;;;0.60;0.60;;;;;;;-3.37;67.05;97489.91;29373;242;63005;-58
2023/02/28 01:40:15;;;;;;;0.70;0.70;;;;;;;-3.38;66.58;97484.81;29373;203;63013;-58
2023/02/28 01:40:48;;;;;;;0.60;0.60;;;;;;;-3.38;66.68;97485.63;29371;229;64009;-58
2023/02/28 01:41:32;;;;;;;0.70;0.70;;;;;;;-3.33;65.88;97486.88;29373;245;63009;-58
2023/02/28 01:42:03;;;;;;;0.70;0.70;;;;;;;-3.32;65.95;97488.53;29373;213;63005;-59
2023/02/28 01:42:35;;;;;;;0.68;0.68;;;;;;;-3.31;65.64;97482.22;29373;318;63015;-58
2023/02/28 01:43:24;;;;;;;0.70;0.70;;;;;;;-3.28;65.60;97479.19;29373;231;63004;-60
2023/02/28 01:44:20;;;;;;;0.70;0.70;;;;;;;-3.29;65.72;97480.19;29373;256;63019;-60
2023/02/28 01:45:01;;;;;;;0.70;0.70;;;;;;;-3.32;65.89;97480.56;29373;195;63004;-58
2023/02/28 01:45:35;;;;;;;0.70;0.70;;;;;;;-3.31;65.25;97477.72;29373;219;63009;-59
2023/02/28 01:46:07;;;;;;;0.70;0.70;;;;;;;-3.28;65.29;97481.84;29371;261;64009;-58
2023/02/28 01:46:38;;;;;;;0.70;0.70;;;;;;;-3.28;65.63;97481.84;29373;197;63009;-58
2023/02/28 01:47:09;;;;;;;0.60;0.60;;;;;;;-3.28;65.93;97481.84;29371;215;64009;-59
2023/02/28 01:47:43;;;;;;;0.70;0.70;;;;;;;-3.30;66.05;97483.84;29373;197;63009;-58
2023/02/28 01:48:15;;;;;;;0.70;0.70;;;;;;;-3.31;66.68;97483.03;29373;332;63009;-61
2023/02/28 01:48:54;;;;;;;0.62;0.62;;;;;;;-3.31;67.07;97490.16;29373;197;63009;-58
2023/02/28 01:49:26;;;;;;;0.70;0.70;;;;;;;-3.35;66.98;97486.25;29373;214;63005;-58
2023/02/28 01:49:58;;;;;;;0.70;0.70;;;;;;;-3.37;66.90;97487.25;29373;222;63009;-58
2023/02/28 01:50:34;;;;;;;0.70;0.70;;;;;;;-3.37;67.14;97483.78;29373;232;63004;-59
2023/02/28 01:51:11;;;;;;;0.70;0.70;;;;;;;-3.37;66.89;97484.63;29373;210;63009;-58
2023/02/28 01:51:50;;;;;;;0.70;0.70;;;;;;;-3.38;67.40;97485.63;29373;286;63004;-58
2023/02/28 01:52:24;;;;;;;0.70;0.70;;;;;;;-3.37;66.89;97484.63;29371;214;64013;-59
2023/02/28 01:53:00;;;;;;;0.70;0.70;;;;;;;-3.35;67.25;97486.25;29373;212;63004;-58
2023/02/28 01:53:41;;;;;;;0.70;0.70;;;;;;;-3.40;67.19;97479.69;29373;225;63009;-59
2023/02/28 01:54:17;;;;;;;0.80;0.80;;;;;;;-3.42;67.69;97487.00;29395;203;63005;-59
2023/02/28 01:54:59;;;;;;;0.70;0.70;;;;;;;-3.43;67.32;97479.25;29395;231;63009;-58
2023/02/28 01:55:33;;;;;;;0.70;0.70;;;;;;;-3.44;67.52;97477.59;29373;276;63000;-58
2023/02/28 01:56:08;;;;;;;0.60;0.60;;;;;;;-3.46;67.56;97480.44;29373;216;63014;-58
2023/02/28 01:56:45;;;;;;;0.70;0.70;;;;;;;-3.45;67.46;97475.94;29373;210;63004;-58
2023/02/28 01:57:24;;;;;;;0.70;0.70;;;;;;;-3.44;67.31;97478.41;29371;212;64013;-58
2023/02/28 01:57:58;;;;;;;0.65;0.65;;;;;;;-3.43;67.69;97485.37;29373;233;63000;-58
2023/02/28 01:58:30;;;;;;;0.70;0.70;;;;;;;-3.43;67.58;97474.75;29373;300;63013;-60
2023/02/28 01:59:03;;;;;;;0.70;0.70;;;;;;;-3.46;67.62;97469.81;29373;202;63004;-58
2023/02/28 01:59:46;;;;;;;0.77;0.77;;;;;;;-3.47;67.22;97478.81;29373;232;63008;-59
2023/02/28 02:00:21;;;;;;;0.70;0.70;;;;;;;-3.46;67.28;97469.81;29373;278;63004;-58
2023/02/28 02:00:52;;;;;;;0.70;0.70;;;;;;;-3.45;67.45;97471.47;29373;212;63009;-58
2023/02/28 02:01:26;;;;;;;0.65;0.65;;;;;;;-3.46;67.51;97474.31;29373;330;63005;-60
2023/02/28 02:01:57;;;;;;;0.70;0.70;;;;;;;-3.48;67.24;97469.22;29373;227;63009;-58
2023/02/28 02:02:29;;;;;;;0.60;0.60;;;;;;;-3.48;67.42;97466.56;29371;218;64009;-59
2023/02/28 02:03:08;;;;;;;0.70;0.70;;;;;;;-3.46;66.95;97459.22;29373;216;63014;-58
2023/02/28 02:03:40;;;;;;;0.70;0.70;;;;;;;-3.44;67.31;97461.69;29373;211;63007;-60
2023/02/28 02:04:11;;;;;;;0.70;0.70;;;;;;;-3.45;67.34;97468.81;29373;202;63009;-58
2023/02/28 02:05:01;;;;;;;0.70;0.70;;;;;;;-3.44;67.59;97462.50;29371;220;64009;-58
2023/02/28 02:05:37;;;;;;;0.70;0.70;;;;;;;-3.43;67.55;97463.31;29371;255;64013;-59
2023/02/28 02:06:08;;;;;;;0.70;0.70;;;;;;;-3.43;68.11;97464.16;29371;196;64009;-58
2023/02/28 02:06:44;;;;;;;0.70;0.70;;;;;;;-3.43;68.19;97463.31;29373;208;63008;-58
2023/02/28 02:07:18;;;;;;;0.60;0.60;;;;;;;-3.44;67.88;97469.63;29371;196;64008;-58
2023/02/28 02:07:55;;;;;;;0.70;0.70;;;;;;;-3.43;68.27;97466.78;29373;233;63009;-60
2023/02/28 02:08:29;;;;;;;0.70;0.70;;;;;;;-3.44;68.43;97462.50;29373;321;63005;-61
2023/02/28 02:09:00;;;;;;;0.70;0.70;;;;;;;-3.44;68.84;97472.28;29373;204;63009;-58
2023/02/28 02:09:31;;;;;;;0.70;0.70;;;;;;;-3.43;69.16;97468.63;29373;198;63005;-59
2023/02/28 02:10:15;;;;;;;0.60;0.60;;;;;;;-3.44;69.44;97478.41;29373;222;63019;-58
2023/02/28 02:11:00;;;;;;;0.70;0.70;;;;;;;-3.44;70.16;97478.41;29373;196;63016;-58
2023/02/28 02:11:35;;;;;;;0.70;0.70;;;;;;;-3.45;69.87;97475.94;29371;279;64013;-58
2023/02/28 02:12:23;;;;;;;0.70;0.70;;;;;;;-3.47;70.14;97473.53;29373;209;63004;-59
2023/02/28 02:13:37;;;;;;;0.70;0.70;;;;;;;-3.50;70.01;97473.06;29373;238;63009;-61
2023/02/28 02:14:41;;;;;;;0.70;0.70;;;;;;;-3.51;69.63;97471.44;29373;202;63004;-58
2023/02/28 02:15:17;;;;;;;0.70;0.70;;;;;;;-3.50;69.23;97468.59;29373;217;63015;-58
2023/02/28 02:16:35;;;;;;;0.70;0.70;;;;;;;-3.48;69.52;97466.56;29373;197;63009;-58
2023/02/28 02:17:36;;;;;;;0.70;0.70;;;;;;;-3.48;69.94;97477.19;29371;216;64009;-59
2023/02/28 02:18:31;;;;;;;0.70;0.70;;;;;;;-3.47;70.27;97467.41;29373;232;63018;-59
2023/02/28 02:19:40;;;;;;;0.70;0.70;;;;;;;-3.49;70.17;97454.31;29373;349;63005;-58
2023/02/28 02:20:56;;;;;;;0.70;0.70;;;;;;;-3.50;69.97;97463.28;29373;213;63000;-58
2023/02/28 02:22:04;;;;;;;0.70;0.70;;;;;;;-3.50;69.30;97457.97;29373;210;63009;-58
2023/02/28 02:23:26;;;;;;;0.60;0.60;;;;;;;-3.48;69.28;97450.66;29371;224;64014;-58
2023/02/28 02:24:35;;;;;;;0.75;0.75;;;;;;;-3.49;68.94;97449.00;29395;222;63005;-58
2023/02/28 02:25:26;;;;;;;0.70;0.70;;;;;;;-3.47;69.01;97452.28;29395;320;63005;-60
2023/02/28 02:26:39;;;;;;;0.70;0.70;;;;;;;-3.44;68.48;97446.59;29395;204;63015;-58
2023/02/28 02:27:58;;;;;;;1.10;1.10;;;;;;;-3.48;68.47;97445.34;29417;271;63009;-60
2023/02/28 02:29:12;;;;;;;0.70;0.70;;;;;;;-3.43;68.34;97442.91;29394;358;64009;-59
2023/02/28 02:30:21;;;;;;;0.70;0.70;;;;;;;-3.41;68.35;97440.91;29371;220;64013;-58
2023/02/28 02:31:28;;;;;;;0.70;0.70;;;;;;;-3.41;68.92;97448.03;29373;198;63009;-58
2023/02/28 02:32:55;;;;;;;0.70;0.70;;;;;;;-3.40;69.10;97449.69;29373;197;63005;-58
2023/02/28 02:34:05;;;;;;;0.70;0.70;;;;;;;-3.44;69.25;97445.75;29373;202;63009;-59
2023/02/28 02:35:43;;;;;;;0.70;0.70;;;;;;;-3.45;68.84;97439.63;29373;395;63004;-60
2023/02/28 02:36:26;;;;;;;0.70;0.70;;;;;;;-3.42;68.96;97446.38;29371;226;64013;-58
2023/02/28 02:37:49;;;;;;;0.80;0.80;;;;;;;-3.44;69.66;97441.28;29373;208;63008;-58
2023/02/28 02:38:43;;;;;;;0.70;0.70;;;;;;;-3.45;69.73;97449.41;29393;219;64014;-58
2023/02/28 02:39:53;;;;;;;0.70;0.70;;;;;;;-3.50;69.82;97447.37;29395;199;63005;-57
2023/02/28 02:40:37;;;;;;;0.70;0.70;;;;;;;-3.51;69.82;97444.91;29373;293;63009;-57
2023/02/28 02:41:50;;;;;;;0.70;0.70;;;;;;;-3.52;69.72;97449.38;29373;225;63005;-60
2023/02/28 02:42:32;;;;;;;0.70;0.70;;;;;;;-3.49;69.97;97448.19;29395;351;63009;-58
2023/02/28 02:43:30;;;;;;;0.70;0.70;;;;;;;-3.48;70.08;97439.22;29394;299;64009;-59
2023/02/28 02:44:11;;;;;;;0.70;0.70;;;;;;;-3.49;70.49;97449.00;29373;279;63019;-58
2023/02/28 02:45:35;;;;;;;0.70;0.70;;;;;;;-3.46;70.80;97448.59;29395;212;63004;-59
2023/02/28 02:46:31;;;;;;;0.70;0.70;;;;;;;-3.47;70.33;97444.34;29395;220;63009;-59
2023/02/28 02:47:14;;;;;;;0.73;0.73;;;;;;;-3.49;70.24;97450.84;29372;370;64005;-58
2023/02/28 02:47:45;;;;;;;0.80;0.80;;;;;;;-3.52;70.66;97449.38;29373;205;63015;-59
2023/02/28 02:48:21;;;;;;;0.70;0.70;;;;;;;-3.52;70.55;97446.75;29371;200;64009;-58
2023/02/28 02:48:55;;;;;;;1.10;1.10;;;;;;;-3.51;70.55;97448.37;29373;257;63009;-58
2023/02/28 02:49:31;;;;;;;0.70;0.70;;;;;;;-3.51;70.31;97444.91;29373;218;63004;-59
2023/02/28 02:50:11;;;;;;;0.80;0.80;;;;;;;-3.50;69.95;97444.72;29373;211;63012;-58
2023/02/28 02:50:59;;;;;;;0.70;0.70;;;;;;;-3.39;69.47;97438.88;29373;224;63004;-58
2023/02/28 02:51:32;;;;;;;0.70;0.70;;;;;;;-3.35;69.11;97444.62;29373;307;63009;-59
2023/02/28 02:52:08;;;;;;;0.70;0.70;;;;;;;-3.34;69.47;97440.13;29373;202;63004;-59
2023/02/28 02:52:46;;;;;;;0.68;0.68;;;;;;;-3.36;69.82;97437.66;29373;203;63009;-59
2023/02/28 02:53:23;;;;;;;0.70;0.70;;;;;;;-3.39;69.94;97438.88;29371;197;63999;-59
2023/02/28 02:53:59;;;;;;;0.70;0.70;;;;;;;-3.39;69.49;97444.19;29373;279;63019;-58
2023/02/28 02:54:35;;;;;;;0.70;0.70;;;;;;;-3.39;69.70;97444.19;29373;220;63005;-58
2023/02/28 02:55:10;;;;;;;0.70;0.70;;;;;;;-3.40;69.64;97442.53;29373;219;63009;-58